Time;durP1;ratioP1;P1;durP2;ratioP2;P2;SDS_P1;SDS_P2;PMS_P1;PMS_P2;Temp;Humidity;BMP_temperature;BMP_pressure;BME280_temperature;BME280_humidity;BME280_pressure;Samples;Min_cycle;Max_cycle;Signal;HPM_P1;HPM_P2
2022/01/27 00:04:52;;;;;;;38.60;26.03;;;3.10;88.00;;;;;;5115638;28;20432;-46
2022/01/27 00:07:18;;;;;;;36.60;25.53;;;3.10;88.20;;;;;;5117893;28;20432;-46
2022/01/27 00:10:13;;;;;;;35.03;23.57;;;3.00;88.20;;;;;;5100171;28;20500;-46
2022/01/27 00:12:32;;;;;;;35.53;23.10;;;3.00;88.40;;;;;;5117168;28;20196;-46
2022/01/27 00:15:09;;;;;;;36.10;24.07;;;3.00;88.40;;;;;;5097843;28;20487;-45
2022/01/27 00:17:41;;;;;;;34.73;24.53;;;3.00;88.50;;;;;;5106165;28;20616;-45
2022/01/27 00:20:08;;;;;;;34.33;25.17;;;2.90;88.60;;;;;;5097788;28;20424;-45
2022/01/27 00:22:34;;;;;;;35.20;23.23;;;2.90;88.70;;;;;;5103774;28;20512;-46
2022/01/27 00:25:02;;;;;;;33.73;22.80;;;2.90;88.70;;;;;;5102129;28;20768;-45
2022/01/27 00:27:28;;;;;;;34.43;25.07;;;2.90;88.80;;;;;;5098477;28;20598;-45
2022/01/27 00:29:54;;;;;;;33.80;22.90;;;2.90;88.70;;;;;;5101137;28;20857;-45
2022/01/27 00:32:20;;;;;;;35.10;25.67;;;2.90;88.80;;;;;;5100194;28;20692;-45
2022/01/27 00:34:46;;;;;;;39.50;26.23;;;2.90;88.70;;;;;;5100977;28;20196;-45
2022/01/27 00:37:11;;;;;;;36.70;25.20;;;2.90;88.80;;;;;;5087092;28;20427;-45
2022/01/27 00:39:37;;;;;;;39.47;26.73;;;2.80;88.80;;;;;;5109984;28;20224;-45
2022/01/27 00:42:04;;;;;;;40.90;26.13;;;2.80;88.80;;;;;;5111712;28;20212;-45
2022/01/27 00:44:30;;;;;;;36.10;24.87;;;2.80;88.90;;;;;;5101019;28;20253;-45
2022/01/27 00:46:55;;;;;;;36.10;26.23;;;2.80;89.00;;;;;;5100761;28;20410;-45
2022/01/27 00:49:21;;;;;;;36.30;24.77;;;2.80;89.10;;;;;;5100421;28;20550;-46
2022/01/27 00:51:47;;;;;;;36.17;24.83;;;2.70;89.10;;;;;;5082538;28;20185;-45
2022/01/27 00:54:25;;;;;;;35.77;26.33;;;2.70;89.20;;;;;;5100268;28;20187;-45
2022/01/27 01:00:04;;;;;;;36.20;24.10;;;2.70;89.40;;;;;;5076548;28;20730;-45
2022/01/27 01:02:49;;;;;;;34.27;24.07;;;2.70;89.40;;;;;;5099699;28;20463;-45
2022/01/27 01:07:51;;;;;;;33.33;24.07;;;2.60;89.20;;;;;;5106603;28;20862;-45
2022/01/27 01:11:12;;;;;;;36.03;25.63;;;2.60;89.30;;;;;;5104692;28;20458;-46
2022/01/27 01:14:25;;;;;;;34.53;25.10;;;2.60;89.40;;;;;;5100032;28;20438;-45
2022/01/27 01:16:12;;;;;;;36.40;24.80;;;2.60;89.50;;;;;;5089981;28;20422;-45
2022/01/27 01:18:57;;;;;;;33.30;23.40;;;2.60;89.60;;;;;;5100022;28;20434;-45
2022/01/27 01:34:28;;;;;;;23.90;11.23;;;3.00;96.20;;;;;;5099752;28;20721;-46
2022/01/27 01:36:57;;;;;;;17.50;12.43;;;4.20;99.90;;;;;;5081684;28;20180;-46
2022/01/27 01:39:26;;;;;;;18.40;14.70;;;5.40;99.90;;;;;;5099885;28;20423;-45
2022/01/27 01:41:52;;;;;;;29.50;20.53;;;6.20;99.90;;;;;;5099382;28;20465;-45
2022/01/27 01:44:18;;;;;;;29.63;23.00;;;6.50;99.90;;;;;;5099872;28;20423;-45
2022/01/27 01:46:44;;;;;;;31.37;24.33;;;6.40;99.90;;;;;;5099681;28;20429;-45
2022/01/27 01:49:10;;;;;;;31.83;24.70;;;6.10;98.00;;;;;;5099688;28;20427;-45
2022/01/27 01:51:37;;;;;;;30.83;23.53;;;5.80;95.80;;;;;;5098460;28;20443;-45
2022/01/27 01:54:04;;;;;;;36.80;24.30;;;5.40;94.00;;;;;;5099242;28;20486;-45
2022/01/27 01:56:29;;;;;;;33.80;25.50;;;4.90;92.60;;;;;;5080493;28;20827;-45
2022/01/27 01:58:55;;;;;;;31.80;24.27;;;4.70;92.20;;;;;;5098949;28;20431;-45
2022/01/27 02:01:21;;;;;;;34.90;26.50;;;4.40;92.00;;;;;;5098852;28;20176;-45
2022/01/27 02:03:47;;;;;;;33.97;24.47;;;4.20;91.70;;;;;;5098980;28;20457;-45
2022/01/27 02:06:39;;;;;;;30.30;22.80;;;3.90;91.40;;;;;;5099191;28;20406;-45
2022/01/27 02:19:43;;;;;;;34.83;24.77;;;3.40;90.70;;;;;;5098871;28;20905;-46
2022/01/27 02:22:09;;;;;;;38.27;26.30;;;3.30;90.40;;;;;;5098738;28;20470;-46
2022/01/27 02:24:36;;;;;;;34.57;24.57;;;3.20;90.30;;;;;;5099156;28;20616;-46
2022/01/27 02:27:03;;;;;;;31.47;23.40;;;3.10;90.10;;;;;;5099085;28;20423;-46
2022/01/27 02:29:29;;;;;;;37.23;26.50;;;3.00;89.90;;;;;;5099094;28;20399;-45
2022/01/27 02:31:56;;;;;;;33.27;24.50;;;3.00;89.90;;;;;;5098517;28;20442;-46
2022/01/27 02:34:22;;;;;;;30.83;22.40;;;2.90;90.20;;;;;;5098725;28;20472;-46
2022/01/27 02:36:48;;;;;;;37.93;24.63;;;2.90;89.90;;;;;;5098830;28;20710;-45
2022/01/27 02:39:14;;;;;;;35.60;26.30;;;2.80;89.80;;;;;;5098709;28;20404;-46
2022/01/27 02:41:49;;;;;;;32.70;23.77;;;2.80;89.80;;;;;;5098583;28;20288;-45
2022/01/27 02:45:04;;;;;;;34.43;24.90;;;2.80;89.70;;;;;;5098617;28;20445;-45
2022/01/27 02:47:31;;;;;;;32.77;23.67;;;2.70;89.60;;;;;;5098707;28;20414;-46
2022/01/27 02:49:57;;;;;;;41.70;25.63;;;2.70;89.60;;;;;;5098176;28;20415;-46
2022/01/27 02:52:22;;;;;;;32.97;24.40;;;2.60;89.60;;;;;;5098201;28;20715;-46
2022/01/27 02:54:48;;;;;;;37.60;23.50;;;2.60;90.20;;;;;;5097296;28;20463;-46
2022/01/27 02:57:14;;;;;;;34.40;24.17;;;2.60;89.70;;;;;;5098597;28;20208;-46
2022/01/27 02:59:40;;;;;;;36.53;25.63;;;2.60;89.60;;;;;;5098311;28;20180;-46
2022/01/27 03:02:05;;;;;;;40.63;24.60;;;2.60;89.60;;;;;;5097084;28;20615;-46
2022/01/27 03:04:33;;;;;;;35.70;24.80;;;2.50;89.60;;;;;;5098499;28;20177;-44
2022/01/27 03:07:03;;;;;;;35.17;24.10;;;2.50;89.60;;;;;;5097693;28;20188;-44
2022/01/27 03:09:28;;;;;;;34.13;23.73;;;2.50;89.60;;;;;;5098443;28;20418;-45
2022/01/27 03:12:08;;;;;;;34.60;23.87;;;2.50;89.60;;;;;;5098135;28;20473;-45
2022/01/27 03:14:35;;;;;;;35.70;23.30;;;2.50;89.60;;;;;;5097155;28;20502;-45
2022/01/27 03:17:01;;;;;;;35.00;24.00;;;2.40;89.50;;;;;;5097962;28;20430;-45
2022/01/27 03:19:27;;;;;;;35.40;24.90;;;2.40;89.50;;;;;;5098391;28;20418;-45
2022/01/27 03:21:56;;;;;;;40.00;26.10;;;2.40;89.50;;;;;;5098011;28;20539;-45
2022/01/27 03:24:24;;;;;;;39.50;25.60;;;2.40;89.60;;;;;;5098724;28;20175;-45
2022/01/27 03:26:50;;;;;;;42.13;26.40;;;2.40;89.80;;;;;;5097885;28;20852;-45
2022/01/27 03:29:17;;;;;;;40.73;26.50;;;2.40;89.80;;;;;;5097065;28;20416;-45
2022/01/27 03:31:44;;;;;;;36.17;24.27;;;2.40;89.80;;;;;;5098234;28;20824;-45
2022/01/27 03:34:10;;;;;;;40.07;25.23;;;2.30;89.80;;;;;;5097918;28;20801;-45
2022/01/27 03:36:35;;;;;;;37.37;26.07;;;2.30;89.80;;;;;;5097877;28;20434;-45
2022/01/27 03:39:02;;;;;;;35.70;24.27;;;2.40;89.80;;;;;;5097274;28;20169;-45
2022/01/27 03:41:32;;;;;;;35.53;24.63;;;2.40;89.80;;;;;;5097717;28;20199;-45
2022/01/27 03:43:57;;;;;;;33.80;23.70;;;2.40;89.70;;;;;;5097803;28;20407;-45
2022/01/27 03:46:24;;;;;;;33.37;22.87;;;2.40;89.60;;;;;;5097472;28;20880;-44
2022/01/27 03:48:49;;;;;;;37.33;25.10;;;2.30;89.40;;;;;;5097392;28;20470;-46
2022/01/27 03:51:15;;;;;;;37.47;26.33;;;2.30;89.40;;;;;;5097808;28;20415;-46
2022/01/27 03:53:41;;;;;;;32.63;23.73;;;2.30;89.50;;;;;;5097266;28;20634;-45
2022/01/27 03:56:07;;;;;;;34.40;24.00;;;2.30;89.30;;;;;;5097358;28;20162;-46
2022/01/27 03:58:33;;;;;;;40.60;26.63;;;2.30;89.40;;;;;;5097539;28;20223;-46
2022/01/27 04:01:01;;;;;;;35.97;25.60;;;2.20;89.40;;;;;;5096944;28;20442;-46
2022/01/27 04:03:30;;;;;;;35.23;23.87;;;2.20;89.50;;;;;;5099326;28;20466;-46
2022/01/27 04:06:03;;;;;;;40.83;25.27;;;2.20;89.60;;;;;;5100891;28;20411;-46
2022/01/27 04:08:29;;;;;;;34.13;23.70;;;2.20;89.60;;;;;;5100062;28;20422;-46
2022/01/27 04:10:54;;;;;;;35.77;24.57;;;2.10;89.70;;;;;;5104444;28;20477;-46
2022/01/27 04:13:20;;;;;;;37.20;26.00;;;2.10;89.80;;;;;;5108241;28;20293;-46
2022/01/27 04:15:46;;;;;;;36.93;23.70;;;2.10;89.80;;;;;;5101211;28;20261;-45
2022/01/27 04:18:13;;;;;;;38.10;25.60;;;2.00;90.00;;;;;;5101631;28;20426;-46
2022/01/27 04:20:40;;;;;;;35.17;24.63;;;2.00;90.00;;;;;;5101440;28;20314;-46
2022/01/27 04:23:06;;;;;;;38.27;24.40;;;2.00;90.00;;;;;;5101368;28;20813;-46
2022/01/27 04:25:32;;;;;;;42.93;25.73;;;2.00;90.10;;;;;;5101268;28;20405;-45
2022/01/27 04:28:03;;;;;;;38.03;25.00;;;2.00;90.10;;;;;;5101118;28;20489;-46
2022/01/27 04:30:29;;;;;;;35.00;23.73;;;2.00;90.10;;;;;;5101533;28;20402;-46
2022/01/27 04:33:00;;;;;;;36.23;24.20;;;2.00;90.10;;;;;;5101236;28;20846;-46
2022/01/27 04:35:29;;;;;;;35.50;23.33;;;2.00;90.10;;;;;;5100878;28;20468;-46
2022/01/27 04:40:47;;;;;;;35.00;24.43;;;1.90;90.20;;;;;;5098522;28;20418;-46
2022/01/27 04:43:24;;;;;;;41.93;26.23;;;1.90;90.20;;;;;;5098357;28;20488;-46
2022/01/27 04:48:34;;;;;;;35.73;23.23;;;1.90;90.20;;;;;;5098798;28;20422;-46
2022/01/27 04:51:06;;;;;;;38.40;24.33;;;1.80;90.20;;;;;;5099083;28;20723;-46
2022/01/27 04:53:37;;;;;;;38.67;23.80;;;1.80;90.20;;;;;;5099612;28;20427;-46
2022/01/27 04:56:03;;;;;;;35.27;22.50;;;1.80;90.30;;;;;;5083477;28;20409;-46
2022/01/27 04:58:32;;;;;;;36.17;24.40;;;1.80;90.30;;;;;;5100752;28;20438;-46
2022/01/27 05:01:02;;;;;;;31.57;22.53;;;1.70;90.10;;;;;;5082338;28;20450;-46
2022/01/27 05:03:38;;;;;;;30.30;20.70;;;1.70;90.00;;;;;;5103726;28;20467;-47
2022/01/27 05:06:04;;;;;;;32.70;21.87;;;1.70;90.30;;;;;;5109137;28;20656;-47
2022/01/27 05:08:29;;;;;;;32.53;21.33;;;1.70;90.00;;;;;;5113785;28;20444;-47
2022/01/27 05:11:03;;;;;;;33.97;22.70;;;1.80;90.00;;;;;;5090880;28;20629;-47
2022/01/27 05:13:36;;;;;;;34.07;22.73;;;1.80;89.90;;;;;;5097080;28;20193;-46
2022/01/27 05:16:02;;;;;;;30.93;21.17;;;1.80;89.70;;;;;;5097932;28;20473;-46
2022/01/27 05:18:28;;;;;;;34.43;23.30;;;1.80;90.20;;;;;;5097298;28;20741;-46
2022/01/27 05:20:53;;;;;;;32.17;22.40;;;1.80;89.40;;;;;;5098104;28;20440;-47
2022/01/27 05:23:19;;;;;;;33.90;21.30;;;1.80;89.10;;;;;;5098500;28;20212;-47
2022/01/27 05:25:45;;;;;;;32.90;22.77;;;1.80;89.00;;;;;;5098585;28;20317;-46
2022/01/27 05:28:10;;;;;;;31.57;21.60;;;1.70;89.00;;;;;;5097727;28;20193;-47
2022/01/27 05:30:36;;;;;;;33.07;22.47;;;1.70;89.10;;;;;;5095334;28;20183;-47
2022/01/27 05:33:02;;;;;;;30.13;20.40;;;1.80;89.40;;;;;;5096512;28;20193;-47
2022/01/27 05:35:27;;;;;;;29.80;20.40;;;1.80;89.30;;;;;;5097142;28;20188;-48
2022/01/27 05:37:53;;;;;;;35.57;22.37;;;1.80;89.10;;;;;;5097673;28;20476;-46
2022/01/27 05:40:19;;;;;;;33.37;22.10;;;1.80;88.90;;;;;;5097958;28;20234;-46
2022/01/27 05:42:44;;;;;;;33.73;23.20;;;1.80;88.80;;;;;;5097285;28;20609;-46
2022/01/27 05:45:10;;;;;;;32.57;21.70;;;1.80;88.60;;;;;;5097682;28;20204;-46
2022/01/27 05:47:36;;;;;;;35.63;22.43;;;1.70;88.60;;;;;;5097394;28;20554;-46
2022/01/27 05:50:02;;;;;;;34.70;23.63;;;1.70;88.60;;;;;;5080266;28;20462;-46
2022/01/27 05:52:28;;;;;;;34.33;22.73;;;1.70;88.70;;;;;;5098609;28;20662;-46
2022/01/27 05:54:53;;;;;;;30.10;21.10;;;1.70;88.80;;;;;;5096569;28;20529;-46
2022/01/27 05:57:19;;;;;;;34.63;22.97;;;1.70;88.70;;;;;;5098209;28;20176;-46
2022/01/27 05:59:45;;;;;;;33.60;22.30;;;1.70;88.80;;;;;;5097175;28;20448;-46
2022/01/27 06:02:11;;;;;;;34.27;21.90;;;1.70;89.60;;;;;;5095790;28;20223;-46
2022/01/27 06:04:36;;;;;;;34.17;22.63;;;1.70;89.00;;;;;;5097543;28;20418;-47
2022/01/27 06:07:02;;;;;;;30.00;21.43;;;1.70;89.00;;;;;;5097716;28;20177;-47
2022/01/27 06:09:28;;;;;;;30.33;21.23;;;1.70;89.10;;;;;;5098343;28;20173;-47
2022/01/27 06:11:57;;;;;;;35.00;23.97;;;1.70;89.00;;;;;;5100325;28;20483;-47
2022/01/27 06:14:22;;;;;;;33.00;23.33;;;1.70;89.00;;;;;;5108484;28;20195;-47
2022/01/27 06:16:48;;;;;;;32.47;21.50;;;1.70;89.10;;;;;;5096107;28;20860;-47
2022/01/27 06:19:14;;;;;;;34.47;23.53;;;1.70;89.30;;;;;;5095713;28;20499;-47
2022/01/27 06:21:42;;;;;;;35.67;23.30;;;1.70;89.30;;;;;;5061151;28;20212;-47
2022/01/27 06:24:08;;;;;;;37.27;23.73;;;1.70;89.20;;;;;;5095113;28;20766;-47
2022/01/27 06:26:34;;;;;;;34.10;23.73;;;1.70;89.20;;;;;;5094533;28;20432;-47
2022/01/27 06:29:00;;;;;;;33.80;22.40;;;1.60;89.20;;;;;;5095019;28;20458;-47
2022/01/27 06:31:25;;;;;;;34.50;22.70;;;1.70;89.30;;;;;;5096129;28;20219;-47
2022/01/27 06:33:54;;;;;;;35.43;23.83;;;1.70;90.00;;;;;;5094648;28;20256;-47
2022/01/27 06:36:20;;;;;;;31.20;22.40;;;1.70;89.30;;;;;;5095646;28;20180;-47
2022/01/27 06:38:46;;;;;;;33.70;22.57;;;1.70;89.30;;;;;;5094989;28;20407;-47
2022/01/27 06:41:12;;;;;;;37.70;23.90;;;1.60;89.20;;;;;;5094699;28;20172;-47
2022/01/27 06:43:37;;;;;;;32.90;22.17;;;1.60;89.30;;;;;;5093639;28;20459;-47
2022/01/27 06:46:03;;;;;;;35.87;23.93;;;1.60;89.20;;;;;;5094008;28;20208;-47
2022/01/27 06:48:29;;;;;;;34.40;22.53;;;1.60;89.10;;;;;;5094347;28;20184;-47
2022/01/27 06:50:56;;;;;;;32.60;21.50;;;1.60;89.10;;;;;;5094558;28;20419;-47
2022/01/27 06:53:22;;;;;;;37.80;22.93;;;1.60;89.20;;;;;;5094237;28;20554;-47
2022/01/27 06:55:48;;;;;;;33.37;22.10;;;1.50;89.10;;;;;;5094608;28;20411;-48
2022/01/27 06:58:14;;;;;;;35.80;21.83;;;1.50;89.10;;;;;;5094440;28;20421;-47
2022/01/27 07:00:39;;;;;;;33.40;22.17;;;1.50;89.20;;;;;;5094412;28;20411;-47
2022/01/27 07:03:05;;;;;;;33.80;22.20;;;1.50;89.50;;;;;;5094040;28;20208;-47
2022/01/27 07:05:32;;;;;;;40.27;24.90;;;1.50;89.70;;;;;;5094089;28;20173;-47
2022/01/27 07:07:58;;;;;;;33.40;24.60;;;1.50;89.70;;;;;;5094139;28;20184;-47
2022/01/27 07:10:29;;;;;;;39.27;26.73;;;1.50;89.70;;;;;;5094258;28;20521;-47
2022/01/27 07:12:54;;;;;;;37.23;23.97;;;1.50;89.90;;;;;;5096224;28;20431;-47
2022/01/27 07:15:20;;;;;;;39.20;26.37;;;1.50;90.00;;;;;;5096176;28;20684;-47
2022/01/27 07:17:47;;;;;;;41.73;26.93;;;1.50;90.10;;;;;;5096880;28;20188;-47
2022/01/27 07:20:12;;;;;;;40.77;28.80;;;1.50;90.20;;;;;;5096813;28;20180;-47
2022/01/27 07:22:38;;;;;;;42.20;28.27;;;1.50;90.20;;;;;;5095436;28;20497;-47
2022/01/27 07:25:06;;;;;;;47.23;29.53;;;1.60;90.30;;;;;;5078828;28;20256;-47
2022/01/27 07:27:32;;;;;;;43.13;31.67;;;1.60;90.30;;;;;;5095676;28;20437;-47
2022/01/27 07:29:58;;;;;;;45.93;30.30;;;1.60;90.40;;;;;;5095043;28;20406;-47
2022/01/27 07:32:24;;;;;;;43.67;29.90;;;1.60;90.40;;;;;;5094540;28;20522;-47
2022/01/27 07:34:49;;;;;;;43.83;31.10;;;1.60;90.40;;;;;;5095036;28;21068;-47
2022/01/27 07:37:15;;;;;;;41.20;28.30;;;1.60;90.40;;;;;;5097892;28;20645;-47
2022/01/27 07:39:41;;;;;;;37.97;25.57;;;1.60;90.50;;;;;;5099810;28;20176;-47
2022/01/27 07:42:07;;;;;;;37.23;25.43;;;1.70;90.60;;;;;;5098769;28;20204;-47
2022/01/27 07:44:32;;;;;;;37.93;27.00;;;1.70;90.40;;;;;;5099243;28;20665;-47
2022/01/27 07:46:58;;;;;;;33.57;23.60;;;1.70;90.40;;;;;;5099770;28;21001;-47
2022/01/27 07:49:24;;;;;;;8.67;6.50;;;1.70;90.40;;;;;;5099850;28;20169;-47
2022/01/27 07:51:50;;;;;;;22.40;13.27;;;4.20;99.90;;;;;;5100355;28;20188;-45
2022/01/27 07:54:16;;;;;;;23.23;14.97;;;5.80;99.90;;;;;;5082178;28;20211;-40
2022/01/27 07:56:41;;;;;;;26.47;17.40;;;7.20;99.90;;;;;;5099609;28;20831;-39
2022/01/27 07:59:07;;;;;;;32.50;21.90;;;7.80;99.90;;;;;;5099072;28;20173;-39
2022/01/27 08:01:33;;;;;;;36.83;25.80;;;7.80;99.90;;;;;;5099157;28;20643;-39
2022/01/27 08:03:58;;;;;;;35.53;25.03;;;7.30;99.90;;;;;;5099732;28;20191;-40
2022/01/27 08:06:24;;;;;;;43.93;28.70;;;6.70;99.90;;;;;;5099252;28;20184;-38
2022/01/27 08:08:50;;;;;;;36.70;24.87;;;6.20;96.80;;;;;;5097956;28;20169;-39
2022/01/27 08:11:17;;;;;;;40.20;28.70;;;5.60;94.40;;;;;;5098266;28;20225;-39
2022/01/27 08:13:43;;;;;;;37.67;26.13;;;5.10;92.20;;;;;;5098893;28;20415;-39
2022/01/27 08:16:08;;;;;;;32.23;24.20;;;4.70;91.80;;;;;;5098629;28;20422;-39
2022/01/27 08:18:34;;;;;;;42.40;28.77;;;4.40;91.50;;;;;;5099165;28;20422;-39
2022/01/27 08:21:00;;;;;;;43.60;29.60;;;4.10;91.00;;;;;;5100442;28;20220;-39
2022/01/27 08:23:25;;;;;;;49.10;31.70;;;3.90;91.10;;;;;;5108422;28;20514;-39
2022/01/27 08:26:02;;;;;;;41.30;27.70;;;3.70;90.60;;;;;;5100042;28;20181;-38
2022/01/27 08:28:34;;;;;;;36.43;23.60;;;3.60;90.40;;;;;;5100800;28;20450;-38
2022/01/27 08:31:00;;;;;;;34.53;21.93;;;3.50;90.20;;;;;;5100525;28;20724;-38
2022/01/27 08:33:29;;;;;;;35.00;22.20;;;3.50;90.20;;;;;;5098633;28;20867;-39
2022/01/27 08:35:58;;;;;;;28.13;20.87;;;3.40;89.70;;;;;;5099003;28;20421;-39
2022/01/27 08:38:27;;;;;;;29.70;20.10;;;3.40;89.40;;;;;;5097478;28;20430;-41
2022/01/27 08:40:53;;;;;;;28.87;19.10;;;3.40;89.10;;;;;;5097632;28;20446;-39
2022/01/27 08:43:19;;;;;;;29.20;19.90;;;3.40;88.70;;;;;;5098849;28;20902;-39
2022/01/27 08:45:46;;;;;;;32.30;19.03;;;3.40;88.20;;;;;;5082214;28;20411;-39
2022/01/27 08:48:17;;;;;;;30.27;19.87;;;3.40;87.70;;;;;;5097005;28;20461;-40
2022/01/27 08:50:50;;;;;;;17.90;8.83;;;3.40;87.20;;;;;;5098298;28;20741;-39
2022/01/27 08:53:16;;;;;;;15.70;10.13;;;4.20;98.10;;;;;;5098547;28;20442;-41
2022/01/27 08:55:44;;;;;;;18.63;11.00;;;5.30;99.90;;;;;;5098151;28;20468;-42
2022/01/27 08:58:13;;;;;;;16.87;11.40;;;6.50;99.90;;;;;;5097595;28;20836;-40
2022/01/27 09:00:39;;;;;;;20.80;13.67;;;7.30;99.90;;;;;;5097174;28;20517;-39
2022/01/27 09:03:05;;;;;;;25.90;18.77;;;7.50;99.90;;;;;;5095303;28;20516;-40
2022/01/27 09:05:30;;;;;;;26.37;17.90;;;7.40;95.50;;;;;;5094306;28;20476;-41
2022/01/27 09:07:57;;;;;;;26.80;20.00;;;7.10;92.40;;;;;;5096450;28;20169;-39
2022/01/27 09:10:23;;;;;;;29.57;19.70;;;6.70;90.00;;;;;;5097626;28;20575;-40
2022/01/27 09:12:49;;;;;;;29.63;21.00;;;6.30;87.70;;;;;;5097136;28;20418;-39
2022/01/27 09:15:15;;;;;;;25.43;18.40;;;6.00;85.60;;;;;;5096424;28;20399;-39
2022/01/27 09:17:40;;;;;;;26.67;19.20;;;5.70;84.80;;;;;;5097716;28;20645;-39
2022/01/27 09:20:08;;;;;;;29.67;18.00;;;5.60;83.20;;;;;;5097115;28;20204;-39
2022/01/27 09:22:36;;;;;;;28.33;19.23;;;5.60;82.50;;;;;;5099429;28;20564;-39
2022/01/27 09:25:11;;;;;;;32.10;22.00;;;5.90;81.60;;;;;;5095346;28;20434;-39
2022/01/27 09:27:37;;;;;;;25.67;18.93;;;6.30;80.30;;;;;;5097078;28;20524;-40
2022/01/27 09:30:03;;;;;;;28.03;20.00;;;7.00;78.50;;;;;;5096531;28;20430;-39
2022/01/27 09:32:29;;;;;;;25.67;17.90;;;7.70;76.00;;;;;;5096319;28;20453;-38
2022/01/27 09:34:55;;;;;;;25.60;17.70;;;8.50;73.50;;;;;;5097130;28;20458;-39
2022/01/27 09:37:20;;;;;;;28.00;19.87;;;9.40;69.30;;;;;;5096324;28;20172;-40
2022/01/27 09:39:46;;;;;;;25.53;18.63;;;10.20;65.00;;;;;;5097104;28;20223;-40
2022/01/27 09:42:13;;;;;;;23.93;17.13;;;11.00;59.90;;;;;;5097709;28;20697;-39
2022/01/27 09:44:41;;;;;;;22.80;16.90;;;11.70;57.90;;;;;;5098601;28;20181;-39
2022/01/27 09:47:12;;;;;;;23.17;17.47;;;12.30;55.20;;;;;;5081705;28;20842;-39
2022/01/27 09:49:48;;;;;;;14.13;10.87;;;12.60;53.60;;;;;;5097583;28;20883;-41
2022/01/27 09:52:15;;;;;;;10.77;8.90;;;13.00;57.70;;;;;;5097670;28;20422;-40
2022/01/27 09:54:41;;;;;;;16.60;13.47;;;13.70;71.90;;;;;;5098349;28;20496;-39
2022/01/27 09:57:07;;;;;;;18.03;14.40;;;14.20;62.20;;;;;;5096708;28;20427;-39
2022/01/27 09:59:33;;;;;;;17.80;15.57;;;14.20;57.00;;;;;;5095839;28;20410;-38
2022/01/27 10:02:05;;;;;;;18.90;15.57;;;14.00;51.60;;;;;;5096092;28;20208;-42
2022/01/27 10:04:44;;;;;;;18.20;14.60;;;13.40;48.70;;;;;;5097128;28;20426;-42
2022/01/27 10:07:11;;;;;;;20.80;15.80;;;12.50;46.80;;;;;;5096904;28;20491;-42
2022/01/27 10:09:37;;;;;;;18.73;13.77;;;11.80;47.20;;;;;;5095963;28;20715;-39
2022/01/27 10:12:05;;;;;;;17.57;14.80;;;11.30;47.90;;;;;;5097634;28;20453;-40
2022/01/27 10:14:36;;;;;;;17.83;13.60;;;10.90;48.70;;;;;;5096495;28;20646;-40
2022/01/27 10:17:07;;;;;;;18.43;13.40;;;10.50;49.10;;;;;;5093872;28;20430;-40
2022/01/27 10:19:35;;;;;;;11.60;9.87;;;10.00;49.70;;;;;;5095523;28;20448;-40
2022/01/27 10:22:13;;;;;;;13.57;9.57;;;9.80;54.40;;;;;;5095905;28;20489;-39
2022/01/27 10:24:39;;;;;;;9.60;8.00;;;9.70;55.70;;;;;;5096746;28;20505;-39
2022/01/27 10:32:37;;;;;;;10.83;8.70;;;9.50;60.20;;;;;;5098030;28;20436;-40
2022/01/27 10:35:04;;;;;;;13.73;10.60;;;9.20;58.40;;;;;;5098261;28;20410;-39
2022/01/27 10:38:06;;;;;;;15.33;10.90;;;8.80;57.30;;;;;;5096627;28;20441;-38
2022/01/27 10:40:38;;;;;;;14.10;10.70;;;8.50;57.30;;;;;;5065442;28;20418;-39
2022/01/27 10:43:07;;;;;;;15.27;10.90;;;8.30;57.10;;;;;;5093884;28;20471;-40
2022/01/27 10:45:33;;;;;;;18.30;13.47;;;8.00;57.10;;;;;;5111666;28;20460;-39
2022/01/27 10:48:21;;;;;;;16.83;14.30;;;7.70;57.10;;;;;;5099214;28;20453;-40
2022/01/27 10:50:56;;;;;;;16.30;12.50;;;7.60;57.50;;;;;;5111915;28;20395;-38
2022/01/27 10:53:22;;;;;;;18.00;13.27;;;7.40;57.50;;;;;;5096154;28;20409;-37
2022/01/27 10:56:04;;;;;;;19.63;14.27;;;7.30;57.60;;;;;;5095812;28;20429;-39
2022/01/27 10:58:31;;;;;;;21.97;15.20;;;7.10;57.60;;;;;;5111936;28;20487;-40
2022/01/27 11:00:59;;;;;;;19.20;15.40;;;7.00;57.80;;;;;;5094539;28;20429;-39
2022/01/27 11:03:27;;;;;;;19.97;15.60;;;6.90;58.00;;;;;;5113289;28;20473;-39
2022/01/27 11:05:54;;;;;;;20.50;15.70;;;6.90;58.00;;;;;;5116346;28;20410;-39
2022/01/27 11:08:21;;;;;;;22.53;16.17;;;6.80;58.20;;;;;;5094184;28;20428;-40
2022/01/27 11:10:49;;;;;;;20.60;15.90;;;6.80;58.40;;;;;;5114848;28;20461;-40
2022/01/27 11:13:19;;;;;;;18.37;13.93;;;6.70;58.60;;;;;;5115510;28;20422;-39
2022/01/27 11:15:46;;;;;;;20.47;15.80;;;6.60;58.80;;;;;;5113452;28;20417;-40
2022/01/27 11:18:17;;;;;;;22.17;16.50;;;6.50;59.10;;;;;;5092702;28;20472;-39
2022/01/27 11:26:11;;;;;;;22.10;14.43;;;6.20;59.70;;;;;;5096676;28;20438;-40
2022/01/27 11:28:42;;;;;;;20.00;15.10;;;6.10;60.00;;;;;;5075727;28;20431;-40
2022/01/27 11:31:44;;;;;;;22.73;14.43;;;6.10;60.60;;;;;;5079446;28;20619;-41
2022/01/27 11:34:12;;;;;;;18.97;14.07;;;6.00;61.00;;;;;;5096146;28;20854;-39
2022/01/27 11:36:39;;;;;;;20.43;14.23;;;6.00;61.30;;;;;;5116282;28;20486;-39
2022/01/27 11:39:17;;;;;;;21.53;15.40;;;6.00;61.70;;;;;;5097428;28;20447;-39
2022/01/27 11:41:45;;;;;;;22.17;16.37;;;6.00;62.10;;;;;;5116817;28;20412;-38
2022/01/27 11:44:26;;;;;;;20.37;15.03;;;6.00;62.30;;;;;;5115667;28;20755;-39
2022/01/27 11:47:18;;;;;;;22.23;15.40;;;6.00;62.50;;;;;;5117144;28;20415;-38
2022/01/27 11:50:12;;;;;;;23.83;17.30;;;6.00;62.60;;;;;;5114849;28;20429;-39
2022/01/27 11:52:50;;;;;;;21.40;14.43;;;6.00;62.70;;;;;;5114175;28;20425;-39
2022/01/27 11:55:26;;;;;;;20.87;15.30;;;6.00;62.80;;;;;;5115098;28;20476;-39
2022/01/27 11:58:01;;;;;;;19.97;13.63;;;6.00;62.80;;;;;;5115434;28;20730;-40
2022/01/27 12:00:29;;;;;;;21.57;14.50;;;6.00;63.00;;;;;;5096828;28;20498;-41
2022/01/27 12:03:04;;;;;;;19.83;14.00;;;5.90;62.90;;;;;;5114860;28;20468;-39
2022/01/27 12:05:45;;;;;;;20.00;13.23;;;5.90;63.00;;;;;;5115167;28;20409;-38
2022/01/27 12:08:19;;;;;;;18.03;13.37;;;5.90;63.20;;;;;;5079852;28;20451;-39
2022/01/27 12:10:48;;;;;;;17.90;13.50;;;6.00;63.40;;;;;;5098060;28;20491;-40
2022/01/27 12:13:32;;;;;;;20.57;13.87;;;6.00;63.60;;;;;;5112987;28;20490;-39
2022/01/27 12:18:58;;;;;;;17.20;13.33;;;6.10;63.60;;;;;;5114104;28;20453;-40
2022/01/27 12:21:29;;;;;;;21.13;14.40;;;6.10;64.30;;;;;;5112802;28;20441;-40
2022/01/27 12:24:19;;;;;;;19.87;14.80;;;6.10;63.40;;;;;;5099247;28;20446;-39
2022/01/27 12:26:58;;;;;;;20.90;14.47;;;6.20;63.50;;;;;;5117965;28;20421;-40
2022/01/27 12:29:46;;;;;;;22.27;13.80;;;6.20;63.70;;;;;;5119289;28;20452;-40
2022/01/27 12:32:28;;;;;;;18.37;14.20;;;6.30;63.90;;;;;;5100586;28;20462;-40
2022/01/27 12:35:03;;;;;;;20.53;14.97;;;6.30;63.80;;;;;;5099083;28;20437;-40
2022/01/27 12:37:37;;;;;;;21.00;15.27;;;6.40;64.00;;;;;;5116759;28;20416;-40
2022/01/27 12:40:06;;;;;;;20.63;15.23;;;6.50;64.10;;;;;;5098710;28;20429;-39
2022/01/27 12:42:38;;;;;;;20.10;15.03;;;6.50;64.00;;;;;;5117383;28;20766;-40
2022/01/27 12:45:09;;;;;;;18.40;14.70;;;6.60;64.00;;;;;;5118847;28;20414;-39
2022/01/27 12:47:45;;;;;;;25.47;17.33;;;6.60;63.90;;;;;;5117196;28;20571;-38
2022/01/27 12:50:18;;;;;;;20.77;16.17;;;6.60;63.90;;;;;;5116384;28;20845;-38
2022/01/27 12:52:47;;;;;;;21.37;17.20;;;6.60;63.90;;;;;;5117799;28;20475;-39
2022/01/27 12:55:15;;;;;;;23.53;15.17;;;6.70;64.00;;;;;;5119084;28;20591;-39
2022/01/27 12:57:41;;;;;;;22.50;15.93;;;6.70;64.00;;;;;;5117638;28;20917;-43
2022/01/27 13:00:10;;;;;;;20.60;15.83;;;6.80;64.00;;;;;;5116552;28;20438;-38
2022/01/27 13:02:37;;;;;;;20.10;14.57;;;6.90;64.20;;;;;;5116925;28;20514;-39
2022/01/27 13:05:05;;;;;;;18.70;14.93;;;6.90;64.10;;;;;;5116641;28;20425;-38
2022/01/27 13:07:33;;;;;;;21.10;15.23;;;7.00;64.20;;;;;;5115849;28;20517;-39
2022/01/27 13:10:20;;;;;;;21.87;14.90;;;7.00;64.20;;;;;;5098322;28;20477;-39
2022/01/27 13:12:57;;;;;;;20.10;15.07;;;7.00;64.20;;;;;;5117007;28;20437;-38
2022/01/27 13:15:26;;;;;;;18.53;14.30;;;7.00;64.10;;;;;;5118211;28;20426;-38
2022/01/27 13:20:22;;;;;;;20.30;15.00;;;7.10;64.40;;;;;;5101121;28;20437;-40
2022/01/27 13:23:08;;;;;;;19.90;13.93;;;7.10;64.70;;;;;;5119984;28;20491;-40
2022/01/27 13:25:48;;;;;;;15.77;13.43;;;7.20;64.80;;;;;;5114386;28;20441;-40
2022/01/27 13:28:24;;;;;;;20.00;14.67;;;7.30;65.10;;;;;;5119056;28;20845;-40
2022/01/27 13:30:55;;;;;;;16.93;13.00;;;7.40;65.10;;;;;;5118746;28;20510;-37
2022/01/27 13:33:22;;;;;;;18.27;13.60;;;7.50;65.10;;;;;;5083013;28;20479;-40
2022/01/27 13:35:49;;;;;;;17.30;12.67;;;7.60;65.00;;;;;;5118449;28;20575;-38
2022/01/27 13:38:23;;;;;;;20.03;13.53;;;7.80;65.10;;;;;;5118264;28;20507;-39
2022/01/27 13:41:23;;;;;;;14.70;12.90;;;8.00;65.10;;;;;;5117693;28;20739;-39